MSC Portugal — D5NP7 — position and weather

sailwx.info

Track history (hours):
 
Tides and Currents Weather Stations Pressure Air Temp Water Temp Dewpoint Dewpoint Depression Visibility Wind Speed Wind Dir Waves Ship Positions

MSC Portugal

Last reported at 2018-Jan-22 08:29 UTC. Time now 2018-Jan-22 08:31 UTC.
Position N 39°26' W 000°20'.

Length 304 m; draft 13.5 m.

Type: Ship (hazmat cat A). MMSI: 636017974.

Date/timePositionNaut miles runAvg speedWind from/ knotsBaromVisibWave heightAir tempDewpointWater temp
2018-Jan-22 08:29N 39°26' W 000°20'0 0.0
2018-Jan-22 07:59N 39°26' W 000°20'0 0.0
2018-Jan-22 07:29N 39°26' W 000°20'0 0.0
2018-Jan-22 06:59N 39°26' W 000°20'0 0.0
2018-Jan-22 06:20N 39°26' W 000°20'0 0.0
2018-Jan-22 05:59N 39°26' W 000°20'0 0.0
2018-Jan-22 05:29N 39°26' W 000°20'0 0.0
2018-Jan-22 04:59N 39°26' W 000°20'0 0.0
2018-Jan-22 04:29N 39°26' W 000°20'0 0.0
2018-Jan-22 03:59N 39°26' W 000°20'0 0.0
2018-Jan-22 03:29N 39°26' W 000°20'0 0.0
2018-Jan-22 02:59N 39°26' W 000°20'0 0.0
2018-Jan-22 02:29N 39°26' W 000°20'0 0.0
2018-Jan-22 01:59N 39°26' W 000°20'0 0.0
2018-Jan-22 01:29N 39°26' W 000°20'0 0.0
2018-Jan-22 00:56N 39°26' W 000°20'0 0.0
2018-Jan-22 00:29N 39°26' W 000°20'0 0.0
2018-Jan-21 23:59N 39°26' W 000°20'1 1.4
2018-Jan-21 23:30N 39°26' W 000°19'3 6.1
2018-Jan-21 23:00N 39°25' W 000°15'3 5.1
2018-Jan-21 22:29N 39°23' W 000°13'10011.7
2018-Jan-21 13:57N 37°44' W 000°22'715.9
2018-Jan-21 13:30N 37°38' W 000°27'815.7
2018-Jan-21 13:00N 37°32' W 000°33'815.6
2018-Jan-21 12:30N 37°27' W 000°41'815.7
2018-Jan-21 12:00N 37°22' W 000°48'815.6
2018-Jan-21 11:30N 37°17' W 000°55'815.4
2018-Jan-21 11:00N 37°12' W 001°03'8215.9
2018-Jan-21 05:51N 36°22' W 002°24'617.7
2018-Jan-21 05:31N 36°21' W 002°32'3616.9
2018-Jan-21 03:24N 36°15' W 003°15'1216.8
2018-Jan-21 02:40N 36°14' W 003°30'416.9
2018-Jan-21 02:27N 36°13' W 003°35'716.9
2018-Jan-21 02:00N 36°12' W 003°44'1118.5
2018-Jan-21 01:26N 36°10' W 003°57'818.5
2018-Jan-21 01:00N 36°09' W 004°07'4617.6
2018-Jan-20 22:22N 36°01' W 005°03'617.0
2018-Jan-20 22:01N 36°01' W 005°11'918.1
2018-Jan-20 21:30N 35°59' W 005°22'16917.1
2018-Jan-20 11:39N 36°27' W 008°48'216.6
2018-Jan-20 11:30N 36°28' W 008°51'816.6
2018-Jan-20 11:00N 36°30' W 009°01'816.7
2018-Jan-20 10:30N 36°32' W 009°11'815.8
2018-Jan-20 10:00N 36°36' W 009°19'1017.1
2018-Jan-20 09:27N 36°43' W 009°27'816.5
2018-Jan-20 08:59N 36°50' W 009°33'917.2
2018-Jan-20 08:28N 36°58' W 009°35'817.1
2018-Jan-20 08:00N 37°06' W 009°37'816.8
2018-Jan-20 07:30N 37°14' W 009°40'916.9
2018-Jan-20 06:58N 37°23' W 009°42'817.0
2018-Jan-20 06:30N 37°31' W 009°44'917.3
2018-Jan-20 06:00N 37°39' W 009°47'817.0
2018-Jan-20 05:30N 37°47' W 009°49'917.0
2018-Jan-20 05:00N 37°56' W 009°51'816.8
2018-Jan-20 04:30N 38°04' W 009°53'917.1
2018-Jan-20 04:00N 38°12' W 009°55'917.0
2018-Jan-20 03:30N 38°21' W 009°58'917.1
2018-Jan-20 03:00N 38°29' W 010°01'917.2
2018-Jan-20 02:30N 38°37' W 010°03'917.2
2018-Jan-20 02:00N 38°46' W 010°05'816.5
2018-Jan-20 01:30N 38°54' W 010°06'816.5
2018-Jan-20 01:00N 39°02' W 010°06'816.8
2018-Jan-20 00:30N 39°10' W 010°06'816.7
2018-Jan-20 00:00N 39°19' W 010°06'816.8
2018-Jan-19 23:30N 39°27' W 010°06'816.8
2018-Jan-19 23:00N 39°36' W 010°06'65917.4
2018-Jan-18 09:02N 49°39' W 003°51'116.3
2018-Jan-18 08:59N 49°39' W 003°50'916.0
2018-Jan-18 08:27N 49°43' W 003°39'715.5
2018-Jan-18 08:00N 49°47' W 003°29'815.4
2018-Jan-18 07:30N 49°51' W 003°19'815.0
2018-Jan-18 07:00N 49°55' W 003°10'714.5
2018-Jan-18 06:30N 49°58' W 002°60'714.6
2018-Jan-18 06:00N 50°01' W 002°49'815.1
2018-Jan-18 05:31N 50°04' W 002°38'815.0
2018-Jan-18 05:00N 50°05' W 002°27'5617.3
2018-Jan-18 01:46N 49°53' W 001°01'518.4
2018-Jan-18 01:30N 49°50' W 000°57'1019.1
2018-Jan-18 01:00N 49°42' W 000°49'1615.8
2018-Jan-18 00:01N 49°35' W 000°27'0 9.1
2018-Jan-17 23:57N 49°35' W 000°26'  
2018-Jan-12 15:01N 51°22' E 004°06'510.6
2018-Jan-12 14:30N 51°26' E 004°00'510.8
2018-Jan-12 14:01N 51°22' E 003°55'510.6
2018-Jan-12 13:30N 51°22' E 003°46'612.2
2018-Jan-12 13:01N 51°26' E 003°40'510.0
2018-Jan-12 12:31N 51°25' E 003°32'4 7.3
2018-Jan-12 12:00N 51°25' E 003°27'4 8.8
2018-Jan-12 11:31N 51°24' E 003°20'714.2
2018-Jan-12 11:00N 51°24' E 003°08'714.5
2018-Jan-12 10:31N 51°25' E 002°57'714.3
2018-Jan-12 10:00N 51°24' E 002°45'5 7.7
2018-Jan-12 09:25N 51°23' E 002°38'4 8.5
2018-Jan-12 08:56N 51°22' E 002°32'814.9
2018-Jan-12 08:25N 51°20' E 002°20'613.7
2018-Jan-12 08:00N 51°19' E 002°11'  
Track history (hours):
 
Tides and Currents Weather Stations Pressure Air Temp Water Temp Dewpoint Dewpoint Depression Visibility Wind Speed Wind Dir Waves Ship Positions

MSC Portugal

Last reported at 2018-Jan-22 08:29 UTC. Time now 2018-Jan-22 08:31 UTC.
Position N 39°26' W 000°20'.

Length 304 m; draft 13.5 m.

Type: Ship (hazmat cat A). MMSI: 636017974.

Date/timePositionNaut miles runAvg speedWind from/ knotsBaromVisibWave heightAir tempDewpointWater temp
2018-Jan-22 08:29N 39°26' W 000°20'0 0.0
2018-Jan-22 07:59N 39°26' W 000°20'0 0.0
2018-Jan-22 07:29N 39°26' W 000°20'0 0.0
2018-Jan-22 06:59N 39°26' W 000°20'0 0.0
2018-Jan-22 06:20N 39°26' W 000°20'0 0.0
2018-Jan-22 05:59N 39°26' W 000°20'0 0.0
2018-Jan-22 05:29N 39°26' W 000°20'0 0.0
2018-Jan-22 04:59N 39°26' W 000°20'0 0.0
2018-Jan-22 04:29N 39°26' W 000°20'0 0.0
2018-Jan-22 03:59N 39°26' W 000°20'0 0.0
2018-Jan-22 03:29N 39°26' W 000°20'0 0.0
2018-Jan-22 02:59N 39°26' W 000°20'0 0.0
2018-Jan-22 02:29N 39°26' W 000°20'0 0.0
2018-Jan-22 01:59N 39°26' W 000°20'0 0.0
2018-Jan-22 01:29N 39°26' W 000°20'0 0.0
2018-Jan-22 00:56N 39°26' W 000°20'0 0.0
2018-Jan-22 00:29N 39°26' W 000°20'0 0.0
2018-Jan-21 23:59N 39°26' W 000°20'1 1.4
2018-Jan-21 23:30N 39°26' W 000°19'3 6.1
2018-Jan-21 23:00N 39°25' W 000°15'3 5.1
2018-Jan-21 22:29N 39°23' W 000°13'10011.7
2018-Jan-21 13:57N 37°44' W 000°22'715.9
2018-Jan-21 13:30N 37°38' W 000°27'815.7
2018-Jan-21 13:00N 37°32' W 000°33'815.6
2018-Jan-21 12:30N 37°27' W 000°41'815.7
2018-Jan-21 12:00N 37°22' W 000°48'815.6
2018-Jan-21 11:30N 37°17' W 000°55'815.4
2018-Jan-21 11:00N 37°12' W 001°03'8215.9
2018-Jan-21 05:51N 36°22' W 002°24'617.7
2018-Jan-21 05:31N 36°21' W 002°32'3616.9
2018-Jan-21 03:24N 36°15' W 003°15'1216.8
2018-Jan-21 02:40N 36°14' W 003°30'416.9
2018-Jan-21 02:27N 36°13' W 003°35'716.9
2018-Jan-21 02:00N 36°12' W 003°44'1118.5
2018-Jan-21 01:26N 36°10' W 003°57'818.5
2018-Jan-21 01:00N 36°09' W 004°07'4617.6
2018-Jan-20 22:22N 36°01' W 005°03'617.0
2018-Jan-20 22:01N 36°01' W 005°11'918.1
2018-Jan-20 21:30N 35°59' W 005°22'16917.1
2018-Jan-20 11:39N 36°27' W 008°48'216.6
2018-Jan-20 11:30N 36°28' W 008°51'816.6
2018-Jan-20 11:00N 36°30' W 009°01'816.7
2018-Jan-20 10:30N 36°32' W 009°11'815.8
2018-Jan-20 10:00N 36°36' W 009°19'1017.1
2018-Jan-20 09:27N 36°43' W 009°27'816.5
2018-Jan-20 08:59N 36°50' W 009°33'917.2
2018-Jan-20 08:28N 36°58' W 009°35'817.1
2018-Jan-20 08:00N 37°06' W 009°37'816.8
2018-Jan-20 07:30N 37°14' W 009°40'916.9
2018-Jan-20 06:58N 37°23' W 009°42'817.0
2018-Jan-20 06:30N 37°31' W 009°44'917.3
2018-Jan-20 06:00N 37°39' W 009°47'817.0
2018-Jan-20 05:30N 37°47' W 009°49'917.0
2018-Jan-20 05:00N 37°56' W 009°51'816.8
2018-Jan-20 04:30N 38°04' W 009°53'917.1
2018-Jan-20 04:00N 38°12' W 009°55'917.0
2018-Jan-20 03:30N 38°21' W 009°58'917.1
2018-Jan-20 03:00N 38°29' W 010°01'917.2
2018-Jan-20 02:30N 38°37' W 010°03'917.2
2018-Jan-20 02:00N 38°46' W 010°05'816.5
2018-Jan-20 01:30N 38°54' W 010°06'816.5
2018-Jan-20 01:00N 39°02' W 010°06'816.8
2018-Jan-20 00:30N 39°10' W 010°06'816.7
2018-Jan-20 00:00N 39°19' W 010°06'816.8
2018-Jan-19 23:30N 39°27' W 010°06'816.8
2018-Jan-19 23:00N 39°36' W 010°06'65917.4
2018-Jan-18 09:02N 49°39' W 003°51'116.3
2018-Jan-18 08:59N 49°39' W 003°50'916.0
2018-Jan-18 08:27N 49°43' W 003°39'715.5
2018-Jan-18 08:00N 49°47' W 003°29'815.4
2018-Jan-18 07:30N 49°51' W 003°19'815.0
2018-Jan-18 07:00N 49°55' W 003°10'714.5
2018-Jan-18 06:30N 49°58' W 002°60'714.6
2018-Jan-18 06:00N 50°01' W 002°49'815.1
2018-Jan-18 05:31N 50°04' W 002°38'815.0
2018-Jan-18 05:00N 50°05' W 002°27'5617.3
2018-Jan-18 01:46N 49°53' W 001°01'518.4
2018-Jan-18 01:30N 49°50' W 000°57'1019.1
2018-Jan-18 01:00N 49°42' W 000°49'1615.8
2018-Jan-18 00:01N 49°35' W 000°27'0 9.1
2018-Jan-17 23:57N 49°35' W 000°26'  
2018-Jan-12 15:01N 51°22' E 004°06'510.6
2018-Jan-12 14:30N 51°26' E 004°00'510.8
2018-Jan-12 14:01N 51°22' E 003°55'510.6
2018-Jan-12 13:30N 51°22' E 003°46'612.2
2018-Jan-12 13:01N 51°26' E 003°40'510.0
2018-Jan-12 12:31N 51°25' E 003°32'4 7.3
2018-Jan-12 12:00N 51°25' E 003°27'4 8.8
2018-Jan-12 11:31N 51°24' E 003°20'714.2
2018-Jan-12 11:00N 51°24' E 003°08'714.5
2018-Jan-12 10:31N 51°25' E 002°57'714.3
2018-Jan-12 10:00N 51°24' E 002°45'5 7.7
2018-Jan-12 09:25N 51°23' E 002°38'4 8.5
2018-Jan-12 08:56N 51°22' E 002°32'814.9
2018-Jan-12 08:25N 51°20' E 002°20'613.7
2018-Jan-12 08:00N 51°19' E 002°11'  

Dump ship's entire track history